TimeCST,TemperatureF,Dew PointF,Humidity,Sea Level PressureIn,VisibilityMPH,Wind Direction,Wind SpeedMPH,Gust SpeedMPH,PrecipitationIn,Events,Conditions,WindDirDegrees,DateUTC
12:53 AM,-9.0,-17.0,68,30.42,10.0,SW,15.0,-,N/A,,Clear,230,2014-01-07 06:53:00
1:53 AM,-9.0,-17.0,68,30.43,9.0,SW,13.8,-,0.00,Snow,Light Snow,230,2014-01-07 07:53:00
2:53 AM,-9.9,-17.0,71,30.44,9.0,SW,15.0,-,0.00,Snow,Light Snow,230,2014-01-07 08:53:00
3:53 AM,-9.0,-17.0,68,30.42,9.0,SW,13.8,-,0.00,Snow,Light Snow,230,2014-01-07 09:53:00
4:53 AM,-9.0,-16.1,71,30.42,10.0,WSW,12.7,-,0.00,,Clear,240,2014-01-07 10:53:00
5:53 AM,-9.0,-16.1,71,30.42,10.0,SW,11.5,-,N/A,,Clear,220,2014-01-07 11:53:00
6:53 AM,-9.0,-16.1,71,30.45,10.0,SW,11.5,-,0.00,,Clear,220,2014-01-07 12:53:00
7:53 AM,-7.1,-14.1,72,30.43,10.0,SSW,12.7,-,0.00,,Scattered Clouds,200,2014-01-07 13:53:00
8:53 AM,-6.0,-13.0,72,30.45,10.0,SSW,12.7,-,0.00,,Partly Cloudy,210,2014-01-07 14:53:00
9:53 AM,-2.9,-11.0,68,30.47,10.0,SW,11.5,-,0.00,,Partly Cloudy,220,2014-01-07 15:53:00
10:53 AM,-0.0,-8.0,69,30.45,10.0,SSW,13.8,-,N/A,,Mostly Cloudy,210,2014-01-07 16:53:00
11:53 AM,3.0,-5.1,69,30.40,10.0,SSW,12.7,-,N/A,,Overcast,210,2014-01-07 17:53:00
12:53 PM,5.0,-2.9,70,30.37,10.0,South,12.7,-,N/A,,Overcast,170,2014-01-07 18:53:00
1:53 PM,7.0,-2.0,67,30.35,10.0,South,12.7,-,N/A,,Overcast,180,2014-01-07 19:53:00
2:53 PM,8.1,-0.9,67,30.33,10.0,SSE,13.8,-,N/A,,Overcast,160,2014-01-07 20:53:00
3:53 PM,9.0,-0.0,67,30.33,10.0,SSE,12.7,-,N/A,,Overcast,160,2014-01-07 21:53:00
4:53 PM,10.0,1.0,67,30.32,10.0,SSE,15.0,-,N/A,,Overcast,160,2014-01-07 22:53:00
5:53 PM,10.9,1.9,67,30.33,10.0,SSE,11.5,-,N/A,,Overcast,160,2014-01-07 23:53:00
6:53 PM,10.9,1.9,67,30.35,10.0,SSE,9.2,-,N/A,,Overcast,150,2014-01-08 00:53:00
7:53 PM,8.1,1.9,76,30.34,10.0,ESE,9.2,-,N/A,,Clear,120,2014-01-08 01:53:00
8:53 PM,6.1,-0.0,76,30.34,10.0,ESE,8.1,-,N/A,,Partly Cloudy,120,2014-01-08 02:53:00
9:53 PM,5.0,-0.0,80,30.32,10.0,ESE,9.2,-,N/A,,Clear,110,2014-01-08 03:53:00
10:53 PM,3.9,-0.9,80,30.31,10.0,ESE,5.8,-,N/A,,Clear,120,2014-01-08 04:53:00
11:53 PM,3.0,-0.9,84,30.30,10.0,SE,5.8,-,N/A,,Clear,130,2014-01-08 05:53:00